sensor_id;sensor_type;location;lat;lon;timestamp;temperature;humidity
19692;DHT22;42748;50.016;19.890;2023-04-03T00:01:11;3.00;99.90
19692;DHT22;42748;50.016;19.890;2023-04-03T00:03:39;3.00;99.90
19692;DHT22;42748;50.016;19.890;2023-04-03T00:06:08;2.90;99.90
19692;DHT22;42748;50.016;19.890;2023-04-03T00:08:38;3.00;99.90
19692;DHT22;42748;50.016;19.890;2023-04-03T00:11:06;3.00;99.90
19692;DHT22;42748;50.016;19.890;2023-04-03T00:13:33;3.00;99.90
19692;DHT22;42748;50.016;19.890;2023-04-03T00:16:01;3.00;99.90
19692;DHT22;42748;50.016;19.890;2023-04-03T00:18:29;3.00;99.90
19692;DHT22;42748;50.016;19.890;2023-04-03T00:20:56;3.00;99.90
19692;DHT22;42748;50.016;19.890;2023-04-03T00:23:23;2.90;99.90
19692;DHT22;42748;50.016;19.890;2023-04-03T00:25:51;2.90;99.90
19692;DHT22;42748;50.016;19.890;2023-04-03T00:28:18;2.90;99.90
19692;DHT22;42748;50.016;19.890;2023-04-03T00:30:46;2.80;99.90
19692;DHT22;42748;50.016;19.890;2023-04-03T00:33:13;2.80;99.90
19692;DHT22;42748;50.016;19.890;2023-04-03T00:35:41;2.80;99.90
19692;DHT22;42748;50.016;19.890;2023-04-03T00:38:08;2.80;99.90
19692;DHT22;42748;50.016;19.890;2023-04-03T00:40:38;2.70;99.90
19692;DHT22;42748;50.016;19.890;2023-04-03T00:43:15;2.70;99.90
19692;DHT22;42748;50.016;19.890;2023-04-03T00:45:44;2.70;99.90
19692;DHT22;42748;50.016;19.890;2023-04-03T00:48:19;2.70;99.90
19692;DHT22;42748;50.016;19.890;2023-04-03T00:50:47;2.70;99.90
19692;DHT22;42748;50.016;19.890;2023-04-03T00:53:19;2.70;99.90
19692;DHT22;42748;50.016;19.890;2023-04-03T00:55:48;2.70;99.90
19692;DHT22;42748;50.016;19.890;2023-04-03T00:58:18;2.70;99.90
19692;DHT22;42748;50.016;19.890;2023-04-03T01:00:50;2.70;99.90
19692;DHT22;42748;50.016;19.890;2023-04-03T01:03:23;2.60;99.90
19692;DHT22;42748;50.016;19.890;2023-04-03T01:05:52;2.60;99.90
19692;DHT22;42748;50.016;19.890;2023-04-03T01:08:20;2.60;99.90
19692;DHT22;42748;50.016;19.890;2023-04-03T01:10:48;2.60;99.90
19692;DHT22;42748;50.016;19.890;2023-04-03T01:13:39;2.50;99.90
19692;DHT22;42748;50.016;19.890;2023-04-03T01:16:07;2.50;99.90
19692;DHT22;42748;50.016;19.890;2023-04-03T01:18:37;2.50;99.90
19692;DHT22;42748;50.016;19.890;2023-04-03T01:26:35;2.30;99.90
19692;DHT22;42748;50.016;19.890;2023-04-03T01:29:03;2.30;99.90
19692;DHT22;42748;50.016;19.890;2023-04-03T01:34:13;2.30;99.90
19692;DHT22;42748;50.016;19.890;2023-04-03T01:36:40;2.20;99.90
19692;DHT22;42748;50.016;19.890;2023-04-03T01:39:08;2.20;99.90
19692;DHT22;42748;50.016;19.890;2023-04-03T01:41:35;2.10;99.90
19692;DHT22;42748;50.016;19.890;2023-04-03T01:44:11;2.10;99.90
19692;DHT22;42748;50.016;19.890;2023-04-03T01:46:38;2.10;99.90
19692;DHT22;42748;50.016;19.890;2023-04-03T01:49:06;2.10;99.90
19692;DHT22;42748;50.016;19.890;2023-04-03T01:51:33;2.10;99.90
19692;DHT22;42748;50.016;19.890;2023-04-03T01:54:00;2.10;99.90
19692;DHT22;42748;50.016;19.890;2023-04-03T01:56:27;2.20;99.90
19692;DHT22;42748;50.016;19.890;2023-04-03T01:58:55;2.10;99.90
19692;DHT22;42748;50.016;19.890;2023-04-03T02:01:23;2.20;99.90
19692;DHT22;42748;50.016;19.890;2023-04-03T02:03:50;2.30;99.90
19692;DHT22;42748;50.016;19.890;2023-04-03T02:06:17;2.30;99.90
19692;DHT22;42748;50.016;19.890;2023-04-03T02:08:44;2.30;99.90
19692;DHT22;42748;50.016;19.890;2023-04-03T02:11:12;2.30;99.90
19692;DHT22;42748;50.016;19.890;2023-04-03T02:13:39;2.30;99.90
19692;DHT22;42748;50.016;19.890;2023-04-03T02:16:08;2.30;99.90
19692;DHT22;42748;50.016;19.890;2023-04-03T02:18:37;2.30;99.90
19692;DHT22;42748;50.016;19.890;2023-04-03T02:21:04;2.30;99.90
19692;DHT22;42748;50.016;19.890;2023-04-03T02:23:32;2.30;99.90
19692;DHT22;42748;50.016;19.890;2023-04-03T02:26:04;2.30;99.90
19692;DHT22;42748;50.016;19.890;2023-04-03T02:28:33;2.30;99.90
19692;DHT22;42748;50.016;19.890;2023-04-03T02:31:01;2.30;99.90
19692;DHT22;42748;50.016;19.890;2023-04-03T02:33:29;2.30;99.90
19692;DHT22;42748;50.016;19.890;2023-04-03T02:35:58;2.30;99.90
19692;DHT22;42748;50.016;19.890;2023-04-03T02:38:25;2.30;99.90
19692;DHT22;42748;50.016;19.890;2023-04-03T02:40:53;2.30;99.90
19692;DHT22;42748;50.016;19.890;2023-04-03T02:43:20;2.30;99.90
19692;DHT22;42748;50.016;19.890;2023-04-03T02:45:47;2.30;99.90
19692;DHT22;42748;50.016;19.890;2023-04-03T02:48:14;2.30;99.90
19692;DHT22;42748;50.016;19.890;2023-04-03T02:50:43;2.30;99.90
19692;DHT22;42748;50.016;19.890;2023-04-03T02:53:10;2.30;99.90
19692;DHT22;42748;50.016;19.890;2023-04-03T02:55:37;2.30;99.90
19692;DHT22;42748;50.016;19.890;2023-04-03T02:58:05;2.20;99.90
19692;DHT22;42748;50.016;19.890;2023-04-03T03:00:35;2.20;99.90
19692;DHT22;42748;50.016;19.890;2023-04-03T03:03:03;2.20;99.90
19692;DHT22;42748;50.016;19.890;2023-04-03T03:05:31;2.20;99.90
19692;DHT22;42748;50.016;19.890;2023-04-03T03:07:58;2.10;99.90
19692;DHT22;42748;50.016;19.890;2023-04-03T03:10:25;2.10;99.90
19692;DHT22;42748;50.016;19.890;2023-04-03T03:12:52;2.10;99.90
19692;DHT22;42748;50.016;19.890;2023-04-03T03:15:19;2.10;99.90
19692;DHT22;42748;50.016;19.890;2023-04-03T03:17:47;2.10;99.90
19692;DHT22;42748;50.016;19.890;2023-04-03T03:20:14;2.00;99.90
19692;DHT22;42748;50.016;19.890;2023-04-03T03:22:42;2.00;99.90
19692;DHT22;42748;50.016;19.890;2023-04-03T03:25:09;2.00;99.90
19692;DHT22;42748;50.016;19.890;2023-04-03T03:27:36;2.00;99.90
19692;DHT22;42748;50.016;19.890;2023-04-03T03:30:05;2.00;99.90
19692;DHT22;42748;50.016;19.890;2023-04-03T03:32:32;2.00;99.90
19692;DHT22;42748;50.016;19.890;2023-04-03T03:35:01;1.90;99.90
19692;DHT22;42748;50.016;19.890;2023-04-03T03:37:28;2.00;99.90
19692;DHT22;42748;50.016;19.890;2023-04-03T03:39:55;1.90;99.90
19692;DHT22;42748;50.016;19.890;2023-04-03T03:42:22;1.90;99.90
19692;DHT22;42748;50.016;19.890;2023-04-03T03:44:49;1.90;99.90
19692;DHT22;42748;50.016;19.890;2023-04-03T03:47:16;1.90;99.90
19692;DHT22;42748;50.016;19.890;2023-04-03T03:49:44;1.90;99.90
19692;DHT22;42748;50.016;19.890;2023-04-03T03:52:11;1.90;99.90
19692;DHT22;42748;50.016;19.890;2023-04-03T03:54:38;1.90;99.90
19692;DHT22;42748;50.016;19.890;2023-04-03T03:57:06;1.90;99.90
19692;DHT22;42748;50.016;19.890;2023-04-03T03:59:33;1.80;99.90
19692;DHT22;42748;50.016;19.890;2023-04-03T04:02:00;1.80;99.90
19692;DHT22;42748;50.016;19.890;2023-04-03T04:04:28;1.80;99.90
19692;DHT22;42748;50.016;19.890;2023-04-03T04:06:55;1.80;99.90
19692;DHT22;42748;50.016;19.890;2023-04-03T04:09:22;1.70;99.90
19692;DHT22;42748;50.016;19.890;2023-04-03T04:11:49;1.70;99.90
19692;DHT22;42748;50.016;19.890;2023-04-03T04:14:17;1.70;99.90
19692;DHT22;42748;50.016;19.890;2023-04-03T04:16:44;1.70;99.90
19692;DHT22;42748;50.016;19.890;2023-04-03T04:19:17;1.70;99.90
19692;DHT22;42748;50.016;19.890;2023-04-03T04:21:44;1.70;99.90
19692;DHT22;42748;50.016;19.890;2023-04-03T04:24:12;1.70;99.90
19692;DHT22;42748;50.016;19.890;2023-04-03T04:26:39;1.70;99.90
19692;DHT22;42748;50.016;19.890;2023-04-03T04:29:10;1.80;99.90
19692;DHT22;42748;50.016;19.890;2023-04-03T04:31:37;1.80;99.90
19692;DHT22;42748;50.016;19.890;2023-04-03T04:34:04;1.80;99.90
19692;DHT22;42748;50.016;19.890;2023-04-03T04:36:32;1.80;99.90
19692;DHT22;42748;50.016;19.890;2023-04-03T04:38:59;1.70;99.90
19692;DHT22;42748;50.016;19.890;2023-04-03T04:41:27;1.70;99.90
19692;DHT22;42748;50.016;19.890;2023-04-03T04:43:55;1.70;99.90
19692;DHT22;42748;50.016;19.890;2023-04-03T04:46:23;1.70;99.90
19692;DHT22;42748;50.016;19.890;2023-04-03T04:48:54;1.60;99.90
19692;DHT22;42748;50.016;19.890;2023-04-03T04:51:22;1.60;99.90
19692;DHT22;42748;50.016;19.890;2023-04-03T04:53:50;1.60;99.90
19692;DHT22;42748;50.016;19.890;2023-04-03T04:56:19;1.60;99.90
19692;DHT22;42748;50.016;19.890;2023-04-03T04:58:48;1.60;99.90
19692;DHT22;42748;50.016;19.890;2023-04-03T05:01:18;1.60;99.90
19692;DHT22;42748;50.016;19.890;2023-04-03T05:03:53;1.60;99.90
19692;DHT22;42748;50.016;19.890;2023-04-03T05:06:22;1.70;99.90
19692;DHT22;42748;50.016;19.890;2023-04-03T05:08:49;1.70;99.90
19692;DHT22;42748;50.016;19.890;2023-04-03T05:11:17;1.70;99.90
19692;DHT22;42748;50.016;19.890;2023-04-03T05:13:46;1.70;99.90
19692;DHT22;42748;50.016;19.890;2023-04-03T05:16:13;1.80;99.90
19692;DHT22;42748;50.016;19.890;2023-04-03T05:18:41;1.80;99.90
19692;DHT22;42748;50.016;19.890;2023-04-03T05:21:15;1.80;99.90
19692;DHT22;42748;50.016;19.890;2023-04-03T05:23:43;1.90;99.90
19692;DHT22;42748;50.016;19.890;2023-04-03T05:26:10;2.00;99.90
19692;DHT22;42748;50.016;19.890;2023-04-03T05:28:38;2.00;99.90
19692;DHT22;42748;50.016;19.890;2023-04-03T05:31:06;2.00;99.90
19692;DHT22;42748;50.016;19.890;2023-04-03T05:33:35;2.10;99.90
19692;DHT22;42748;50.016;19.890;2023-04-03T05:36:06;2.10;99.90
19692;DHT22;42748;50.016;19.890;2023-04-03T05:38:39;2.00;99.90
19692;DHT22;42748;50.016;19.890;2023-04-03T05:41:07;2.00;99.90
19692;DHT22;42748;50.016;19.890;2023-04-03T05:43:34;1.90;99.90
19692;DHT22;42748;50.016;19.890;2023-04-03T05:46:17;1.90;99.90
19692;DHT22;42748;50.016;19.890;2023-04-03T05:48:48;1.90;99.90
19692;DHT22;42748;50.016;19.890;2023-04-03T05:51:22;2.00;99.90
19692;DHT22;42748;50.016;19.890;2023-04-03T05:53:56;2.00;99.90
19692;DHT22;42748;50.016;19.890;2023-04-03T05:56:25;2.00;99.90
19692;DHT22;42748;50.016;19.890;2023-04-03T05:58:53;1.90;99.90
19692;DHT22;42748;50.016;19.890;2023-04-03T06:01:21;1.80;99.90
19692;DHT22;42748;50.016;19.890;2023-04-03T06:03:48;1.80;99.90
19692;DHT22;42748;50.016;19.890;2023-04-03T06:06:16;1.80;99.90
19692;DHT22;42748;50.016;19.890;2023-04-03T06:08:43;1.70;99.90
19692;DHT22;42748;50.016;19.890;2023-04-03T06:11:11;1.70;99.90
19692;DHT22;42748;50.016;19.890;2023-04-03T06:13:38;1.60;99.90
19692;DHT22;42748;50.016;19.890;2023-04-03T06:16:06;1.50;99.90
19692;DHT22;42748;50.016;19.890;2023-04-03T06:18:33;1.40;99.90
19692;DHT22;42748;50.016;19.890;2023-04-03T06:21:00;1.40;99.90
19692;DHT22;42748;50.016;19.890;2023-04-03T06:23:29;1.40;99.90
19692;DHT22;42748;50.016;19.890;2023-04-03T06:25:56;1.40;99.90
19692;DHT22;42748;50.016;19.890;2023-04-03T06:28:23;1.40;99.90
19692;DHT22;42748;50.016;19.890;2023-04-03T06:30:52;1.30;99.90
19692;DHT22;42748;50.016;19.890;2023-04-03T06:33:19;1.40;99.90
19692;DHT22;42748;50.016;19.890;2023-04-03T06:35:46;1.40;99.90
19692;DHT22;42748;50.016;19.890;2023-04-03T06:38:14;1.50;99.90
19692;DHT22;42748;50.016;19.890;2023-04-03T06:40:41;1.60;99.90
19692;DHT22;42748;50.016;19.890;2023-04-03T06:43:08;1.60;99.90
19692;DHT22;42748;50.016;19.890;2023-04-03T06:45:35;1.70;99.90
19692;DHT22;42748;50.016;19.890;2023-04-03T06:48:03;1.70;99.90
19692;DHT22;42748;50.016;19.890;2023-04-03T06:50:30;1.70;99.90
19692;DHT22;42748;50.016;19.890;2023-04-03T06:52:57;1.80;99.90
19692;DHT22;42748;50.016;19.890;2023-04-03T06:55:25;1.80;99.90
19692;DHT22;42748;50.016;19.890;2023-04-03T06:57:52;1.80;99.90
19692;DHT22;42748;50.016;19.890;2023-04-03T07:00:19;1.90;99.90
19692;DHT22;42748;50.016;19.890;2023-04-03T07:02:46;1.90;99.90
19692;DHT22;42748;50.016;19.890;2023-04-03T07:05:14;1.90;99.90
19692;DHT22;42748;50.016;19.890;2023-04-03T07:07:41;2.00;99.90
19692;DHT22;42748;50.016;19.890;2023-04-03T07:10:08;2.00;99.90
19692;DHT22;42748;50.016;19.890;2023-04-03T07:12:36;2.10;99.90
19692;DHT22;42748;50.016;19.890;2023-04-03T07:15:07;2.20;99.90
19692;DHT22;42748;50.016;19.890;2023-04-03T07:17:35;2.30;99.90
19692;DHT22;42748;50.016;19.890;2023-04-03T07:20:03;2.30;99.90
19692;DHT22;42748;50.016;19.890;2023-04-03T07:22:31;2.40;99.90
19692;DHT22;42748;50.016;19.890;2023-04-03T07:24:58;2.40;99.90
19692;DHT22;42748;50.016;19.890;2023-04-03T07:27:29;2.40;99.90
19692;DHT22;42748;50.016;19.890;2023-04-03T07:29:56;2.30;99.90
19692;DHT22;42748;50.016;19.890;2023-04-03T07:32:23;2.30;99.90
19692;DHT22;42748;50.016;19.890;2023-04-03T07:34:50;2.40;99.90
19692;DHT22;42748;50.016;19.890;2023-04-03T07:37:18;2.30;99.90
19692;DHT22;42748;50.016;19.890;2023-04-03T07:39:45;2.30;99.90
19692;DHT22;42748;50.016;19.890;2023-04-03T07:42:12;2.30;99.90
19692;DHT22;42748;50.016;19.890;2023-04-03T07:44:39;2.40;99.90
19692;DHT22;42748;50.016;19.890;2023-04-03T07:47:07;2.40;99.90
19692;DHT22;42748;50.016;19.890;2023-04-03T07:49:35;2.60;99.90
19692;DHT22;42748;50.016;19.890;2023-04-03T07:52:05;2.70;99.90
19692;DHT22;42748;50.016;19.890;2023-04-03T07:54:32;2.90;99.90
19692;DHT22;42748;50.016;19.890;2023-04-03T07:56:59;3.00;99.90
19692;DHT22;42748;50.016;19.890;2023-04-03T07:59:27;3.20;99.90
19692;DHT22;42748;50.016;19.890;2023-04-03T08:01:54;3.40;99.90
19692;DHT22;42748;50.016;19.890;2023-04-03T08:04:22;3.80;99.90
19692;DHT22;42748;50.016;19.890;2023-04-03T08:06:49;4.10;99.90
19692;DHT22;42748;50.016;19.890;2023-04-03T08:09:17;4.30;99.90
19692;DHT22;42748;50.016;19.890;2023-04-03T08:11:45;5.00;99.90
19692;DHT22;42748;50.016;19.890;2023-04-03T08:14:13;5.50;99.90
19692;DHT22;42748;50.016;19.890;2023-04-03T08:16:44;5.60;99.90
19692;DHT22;42748;50.016;19.890;2023-04-03T08:19:12;5.40;99.90
19692;DHT22;42748;50.016;19.890;2023-04-03T08:21:51;5.30;99.90
19692;DHT22;42748;50.016;19.890;2023-04-03T08:24:18;5.00;99.90
19692;DHT22;42748;50.016;19.890;2023-04-03T08:26:46;4.90;99.90
19692;DHT22;42748;50.016;19.890;2023-04-03T08:29:13;5.00;99.90
19692;DHT22;42748;50.016;19.890;2023-04-03T08:31:40;5.20;99.90
19692;DHT22;42748;50.016;19.890;2023-04-03T08:34:07;5.10;99.90
19692;DHT22;42748;50.016;19.890;2023-04-03T08:36:35;4.90;99.90
19692;DHT22;42748;50.016;19.890;2023-04-03T08:39:02;4.50;99.90
19692;DHT22;42748;50.016;19.890;2023-04-03T08:41:41;4.50;99.90
19692;DHT22;42748;50.016;19.890;2023-04-03T08:44:33;4.80;99.90
19692;DHT22;42748;50.016;19.890;2023-04-03T08:47:24;4.50;99.90
19692;DHT22;42748;50.016;19.890;2023-04-03T08:50:05;4.10;99.90
19692;DHT22;42748;50.016;19.890;2023-04-03T08:52:47;4.10;99.90
19692;DHT22;42748;50.016;19.890;2023-04-03T08:55:31;4.00;99.90
19692;DHT22;42748;50.016;19.890;2023-04-03T09:01:04;4.40;99.90
19692;DHT22;42748;50.016;19.890;2023-04-03T09:03:34;4.20;99.90
19692;DHT22;42748;50.016;19.890;2023-04-03T09:08:55;4.00;99.90
19692;DHT22;42748;50.016;19.890;2023-04-03T09:11:48;3.90;99.90
19692;DHT22;42748;50.016;19.890;2023-04-03T09:17:12;3.60;99.90
19692;DHT22;42748;50.016;19.890;2023-04-03T09:19:57;3.50;99.90
19692;DHT22;42748;50.016;19.890;2023-04-03T09:22:26;3.40;99.90
19692;DHT22;42748;50.016;19.890;2023-04-03T09:27:46;3.30;99.90
19692;DHT22;42748;50.016;19.890;2023-04-03T09:30:22;3.20;99.90
19692;DHT22;42748;50.016;19.890;2023-04-03T09:32:52;3.10;99.90
19692;DHT22;42748;50.016;19.890;2023-04-03T09:35:29;3.00;99.90
19692;DHT22;42748;50.016;19.890;2023-04-03T09:40:51;3.00;99.90
19692;DHT22;42748;50.016;19.890;2023-04-03T09:43:34;2.90;99.90
19692;DHT22;42748;50.016;19.890;2023-04-03T09:46:30;3.00;99.90
19692;DHT22;42748;50.016;19.890;2023-04-03T09:49:01;2.90;99.90
19692;DHT22;42748;50.016;19.890;2023-04-03T09:51:36;2.90;99.90
19692;DHT22;42748;50.016;19.890;2023-04-03T09:57:19;2.90;99.90
19692;DHT22;42748;50.016;19.890;2023-04-03T09:59:57;2.90;99.90
19692;DHT22;42748;50.016;19.890;2023-04-03T10:02:37;3.00;99.90
19692;DHT22;42748;50.016;19.890;2023-04-03T10:05:30;3.00;99.90
19692;DHT22;42748;50.016;19.890;2023-04-03T10:10:41;2.90;99.90
19692;DHT22;42748;50.016;19.890;2023-04-03T10:13:18;2.90;99.90
19692;DHT22;42748;50.016;19.890;2023-04-03T10:15:59;2.80;99.90
19692;DHT22;42748;50.016;19.890;2023-04-03T10:19:15;2.70;99.90
19692;DHT22;42748;50.016;19.890;2023-04-03T10:21:43;2.60;99.90
19692;DHT22;42748;50.016;19.890;2023-04-03T10:24:28;2.60;99.90
19692;DHT22;42748;50.016;19.890;2023-04-03T10:29:55;3.00;99.90
19692;DHT22;42748;50.016;19.890;2023-04-03T10:35:42;3.20;99.90
19692;DHT22;42748;50.016;19.890;2023-04-03T10:38:36;3.20;99.90
19692;DHT22;42748;50.016;19.890;2023-04-03T10:44:02;2.80;99.90
19692;DHT22;42748;50.016;19.890;2023-04-03T10:46:48;2.90;99.90
19692;DHT22;42748;50.016;19.890;2023-04-03T10:55:21;3.10;99.90
19692;DHT22;42748;50.016;19.890;2023-04-03T10:57:56;3.10;99.90
19692;DHT22;42748;50.016;19.890;2023-04-03T11:00:37;3.00;99.90
19692;DHT22;42748;50.016;19.890;2023-04-03T11:03:30;3.10;99.90
19692;DHT22;42748;50.016;19.890;2023-04-03T11:06:02;3.20;99.90
19692;DHT22;42748;50.016;19.890;2023-04-03T11:08:41;3.00;99.90
19692;DHT22;42748;50.016;19.890;2023-04-03T11:11:13;3.10;99.90
19692;DHT22;42748;50.016;19.890;2023-04-03T11:13:55;3.20;99.90
19692;DHT22;42748;50.016;19.890;2023-04-03T11:16:26;3.20;99.90
19692;DHT22;42748;50.016;19.890;2023-04-03T11:19:03;3.30;99.90
19692;DHT22;42748;50.016;19.890;2023-04-03T11:21:37;3.20;99.90
19692;DHT22;42748;50.016;19.890;2023-04-03T11:24:17;3.20;99.90
19692;DHT22;42748;50.016;19.890;2023-04-03T11:26:49;3.10;99.90
19692;DHT22;42748;50.016;19.890;2023-04-03T11:29:24;3.00;99.90
19692;DHT22;42748;50.016;19.890;2023-04-03T11:32:32;3.00;99.90
19692;DHT22;42748;50.016;19.890;2023-04-03T11:35:03;3.20;99.90
19692;DHT22;42748;50.016;19.890;2023-04-03T11:37:35;3.40;99.90
19692;DHT22;42748;50.016;19.890;2023-04-03T11:43:07;3.70;99.90
19692;DHT22;42748;50.016;19.890;2023-04-03T11:50:51;3.80;99.90
19692;DHT22;42748;50.016;19.890;2023-04-03T11:53:31;3.80;99.90
19692;DHT22;42748;50.016;19.890;2023-04-03T11:56:04;3.80;99.90
19692;DHT22;42748;50.016;19.890;2023-04-03T11:58:33;3.90;99.90
19692;DHT22;42748;50.016;19.890;2023-04-03T12:01:09;4.20;99.90
19692;DHT22;42748;50.016;19.890;2023-04-03T12:11:15;4.50;99.90
19692;DHT22;42748;50.016;19.890;2023-04-03T12:36:18;4.90;99.90
19692;DHT22;42748;50.016;19.890;2023-04-03T12:41:30;4.60;99.90
19692;DHT22;42748;50.016;19.890;2023-04-03T12:46:52;4.80;99.90
19692;DHT22;42748;50.016;19.890;2023-04-03T12:49:41;4.90;99.90
19692;DHT22;42748;50.016;19.890;2023-04-03T12:52:32;4.90;99.90
19692;DHT22;42748;50.016;19.890;2023-04-03T12:55:00;4.90;99.90
19692;DHT22;42748;50.016;19.890;2023-04-03T12:57:31;4.80;99.90
19692;DHT22;42748;50.016;19.890;2023-04-03T12:59:59;4.90;99.90
19692;DHT22;42748;50.016;19.890;2023-04-03T13:02:31;5.20;99.90
19692;DHT22;42748;50.016;19.890;2023-04-03T13:05:06;5.60;99.90
19692;DHT22;42748;50.016;19.890;2023-04-03T13:07:37;5.60;99.90
19692;DHT22;42748;50.016;19.890;2023-04-03T13:12:53;5.60;99.90
19692;DHT22;42748;50.016;19.890;2023-04-03T13:17:50;5.20;99.90
19692;DHT22;42748;50.016;19.890;2023-04-03T13:20:31;5.00;99.90
19692;DHT22;42748;50.016;19.890;2023-04-03T13:25:34;5.10;99.90
19692;DHT22;42748;50.016;19.890;2023-04-03T13:28:04;5.30;99.90
19692;DHT22;42748;50.016;19.890;2023-04-03T13:30:40;5.30;99.90
19692;DHT22;42748;50.016;19.890;2023-04-03T13:33:29;5.40;99.90
19692;DHT22;42748;50.016;19.890;2023-04-03T13:36:08;5.30;99.90
19692;DHT22;42748;50.016;19.890;2023-04-03T13:38:42;5.20;99.90
19692;DHT22;42748;50.016;19.890;2023-04-03T13:41:33;5.10;99.90
19692;DHT22;42748;50.016;19.890;2023-04-03T13:46:52;5.00;99.90
19692;DHT22;42748;50.016;19.890;2023-04-03T13:51:49;4.90;99.90
19692;DHT22;42748;50.016;19.890;2023-04-03T13:54:38;4.70;99.90
19692;DHT22;42748;50.016;19.890;2023-04-03T13:57:14;4.70;99.90
19692;DHT22;42748;50.016;19.890;2023-04-03T13:59:42;4.70;99.90
19692;DHT22;42748;50.016;19.890;2023-04-03T14:07:12;5.20;99.90
19692;DHT22;42748;50.016;19.890;2023-04-03T14:09:40;5.30;99.90
19692;DHT22;42748;50.016;19.890;2023-04-03T14:12:30;5.10;99.90
19692;DHT22;42748;50.016;19.890;2023-04-03T14:15:00;5.00;99.90
19692;DHT22;42748;50.016;19.890;2023-04-03T14:17:28;4.70;99.90
19692;DHT22;42748;50.016;19.890;2023-04-03T14:19:56;4.70;99.90
19692;DHT22;42748;50.016;19.890;2023-04-03T14:22:28;4.70;99.90
19692;DHT22;42748;50.016;19.890;2023-04-03T14:24:56;4.80;99.90
19692;DHT22;42748;50.016;19.890;2023-04-03T14:27:26;4.70;99.90
19692;DHT22;42748;50.016;19.890;2023-04-03T14:29:54;4.90;99.90
19692;DHT22;42748;50.016;19.890;2023-04-03T14:32:24;5.10;99.90
19692;DHT22;42748;50.016;19.890;2023-04-03T14:34:52;4.90;99.90
19692;DHT22;42748;50.016;19.890;2023-04-03T14:37:23;4.80;99.90
19692;DHT22;42748;50.016;19.890;2023-04-03T14:39:51;4.70;99.90
19692;DHT22;42748;50.016;19.890;2023-04-03T14:42:26;4.70;99.90
19692;DHT22;42748;50.016;19.890;2023-04-03T14:44:54;4.60;99.90
19692;DHT22;42748;50.016;19.890;2023-04-03T14:47:25;4.40;99.90
19692;DHT22;42748;50.016;19.890;2023-04-03T14:50:02;4.40;99.90
19692;DHT22;42748;50.016;19.890;2023-04-03T14:52:33;4.50;99.90
19692;DHT22;42748;50.016;19.890;2023-04-03T14:55:01;4.70;99.90
19692;DHT22;42748;50.016;19.890;2023-04-03T14:57:29;4.60;99.90
19692;DHT22;42748;50.016;19.890;2023-04-03T14:59:57;4.60;99.90
19692;DHT22;42748;50.016;19.890;2023-04-03T15:02:32;4.50;99.90
19692;DHT22;42748;50.016;19.890;2023-04-03T15:05:02;4.50;99.90
19692;DHT22;42748;50.016;19.890;2023-04-03T15:07:34;4.60;99.90
19692;DHT22;42748;50.016;19.890;2023-04-03T15:10:26;4.50;99.90
19692;DHT22;42748;50.016;19.890;2023-04-03T15:12:54;4.70;99.90
19692;DHT22;42748;50.016;19.890;2023-04-03T15:15:23;4.80;99.90
19692;DHT22;42748;50.016;19.890;2023-04-03T15:17:52;4.90;99.90
19692;DHT22;42748;50.016;19.890;2023-04-03T15:20:23;4.80;99.90
19692;DHT22;42748;50.016;19.890;2023-04-03T15:22:50;4.80;99.90
19692;DHT22;42748;50.016;19.890;2023-04-03T15:25:18;4.70;99.90
19692;DHT22;42748;50.016;19.890;2023-04-03T15:27:45;4.70;99.90
19692;DHT22;42748;50.016;19.890;2023-04-03T15:30:18;4.60;99.90
19692;DHT22;42748;50.016;19.890;2023-04-03T15:32:46;4.60;99.90
19692;DHT22;42748;50.016;19.890;2023-04-03T15:35:13;4.70;99.90
19692;DHT22;42748;50.016;19.890;2023-04-03T15:37:40;4.70;99.90
19692;DHT22;42748;50.016;19.890;2023-04-03T15:40:08;4.60;99.90
19692;DHT22;42748;50.016;19.890;2023-04-03T15:42:36;4.50;99.90
19692;DHT22;42748;50.016;19.890;2023-04-03T15:45:03;4.30;99.90
19692;DHT22;42748;50.016;19.890;2023-04-03T15:47:30;4.10;99.90
19692;DHT22;42748;50.016;19.890;2023-04-03T15:49:58;4.00;99.90
19692;DHT22;42748;50.016;19.890;2023-04-03T15:52:25;4.10;99.90
19692;DHT22;42748;50.016;19.890;2023-04-03T15:54:52;4.10;99.90
19692;DHT22;42748;50.016;19.890;2023-04-03T15:57:19;4.00;99.90
19692;DHT22;42748;50.016;19.890;2023-04-03T15:59:46;4.10;99.90
19692;DHT22;42748;50.016;19.890;2023-04-03T16:02:13;4.10;99.90
19692;DHT22;42748;50.016;19.890;2023-04-03T16:04:41;4.10;99.90
19692;DHT22;42748;50.016;19.890;2023-04-03T16:07:08;4.20;99.90
19692;DHT22;42748;50.016;19.890;2023-04-03T16:09:36;4.20;99.90
19692;DHT22;42748;50.016;19.890;2023-04-03T16:12:03;4.20;99.90
19692;DHT22;42748;50.016;19.890;2023-04-03T16:14:30;4.10;99.90
19692;DHT22;42748;50.016;19.890;2023-04-03T16:16:58;4.10;99.90
19692;DHT22;42748;50.016;19.890;2023-04-03T16:19:26;4.20;99.90
19692;DHT22;42748;50.016;19.890;2023-04-03T16:21:54;4.10;99.90
19692;DHT22;42748;50.016;19.890;2023-04-03T16:24:22;4.10;99.90
19692;DHT22;42748;50.016;19.890;2023-04-03T16:26:49;4.10;99.90
19692;DHT22;42748;50.016;19.890;2023-04-03T16:29:16;4.10;99.90
19692;DHT22;42748;50.016;19.890;2023-04-03T16:31:43;4.10;99.90
19692;DHT22;42748;50.016;19.890;2023-04-03T16:34:11;4.00;99.90
19692;DHT22;42748;50.016;19.890;2023-04-03T16:36:39;4.10;99.90
19692;DHT22;42748;50.016;19.890;2023-04-03T16:39:06;4.10;99.90
19692;DHT22;42748;50.016;19.890;2023-04-03T16:41:36;4.10;99.90
19692;DHT22;42748;50.016;19.890;2023-04-03T16:44:03;4.10;99.90
19692;DHT22;42748;50.016;19.890;2023-04-03T16:46:30;4.00;99.90
19692;DHT22;42748;50.016;19.890;2023-04-03T16:48:57;3.90;99.90
19692;DHT22;42748;50.016;19.890;2023-04-03T16:51:24;3.90;99.90
19692;DHT22;42748;50.016;19.890;2023-04-03T16:53:52;3.90;99.90
19692;DHT22;42748;50.016;19.890;2023-04-03T16:56:19;3.70;99.90
19692;DHT22;42748;50.016;19.890;2023-04-03T16:58:46;3.70;99.90
19692;DHT22;42748;50.016;19.890;2023-04-03T17:01:16;3.60;99.90
19692;DHT22;42748;50.016;19.890;2023-04-03T17:03:44;3.60;99.90
19692;DHT22;42748;50.016;19.890;2023-04-03T17:06:15;3.50;99.90
19692;DHT22;42748;50.016;19.890;2023-04-03T17:08:45;3.40;99.90
19692;DHT22;42748;50.016;19.890;2023-04-03T17:11:28;3.40;99.90
19692;DHT22;42748;50.016;19.890;2023-04-03T17:13:55;3.30;99.90
19692;DHT22;42748;50.016;19.890;2023-04-03T17:16:23;3.30;99.90
19692;DHT22;42748;50.016;19.890;2023-04-03T17:18:51;3.20;99.90
19692;DHT22;42748;50.016;19.890;2023-04-03T17:21:20;3.20;99.90
19692;DHT22;42748;50.016;19.890;2023-04-03T17:23:50;3.20;99.90
19692;DHT22;42748;50.016;19.890;2023-04-03T17:26:19;3.10;99.90
19692;DHT22;42748;50.016;19.890;2023-04-03T17:28:48;3.00;99.90
19692;DHT22;42748;50.016;19.890;2023-04-03T17:31:15;3.00;99.90
19692;DHT22;42748;50.016;19.890;2023-04-03T17:33:42;3.00;99.90
19692;DHT22;42748;50.016;19.890;2023-04-03T17:36:09;2.90;99.90